Time;durP1;ratioP1;P1;durP2;ratioP2;P2;SDS_P1;SDS_P2;PMS_P1;PMS_P2;Temp;Humidity;BMP_temperature;BMP_pressure;BME280_temperature;BME280_humidity;BME280_pressure;Samples;Min_cycle;Max_cycle;Signal;HPM_P1;HPM_P2
2022/06/10 00:02:08;;;;;;;13.77;12.37;;;14.60;99.90;;;;;;4968108;28;20951;-55
2022/06/10 00:04:34;;;;;;;15.57;13.57;;;14.70;99.90;;;;;;4965934;28;20214;-54
2022/06/10 00:07:00;;;;;;;13.30;12.00;;;14.80;99.90;;;;;;4970179;28;20184;-53
2022/06/10 00:09:26;;;;;;;12.60;11.30;;;14.90;99.90;;;;;;4963996;28;20504;-48
2022/06/10 00:11:51;;;;;;;14.87;12.77;;;14.90;99.90;;;;;;4971041;28;20189;-53
2022/06/10 00:14:17;;;;;;;13.17;11.93;;;15.00;99.90;;;;;;4968923;28;20196;-55
2022/06/10 00:16:42;;;;;;;14.87;10.80;;;15.00;99.90;;;;;;4972697;28;20217;-52
2022/06/10 00:19:08;;;;;;;13.20;11.63;;;15.10;99.90;;;;;;4968182;28;20224;-48
2022/06/10 00:21:34;;;;;;;11.83;10.73;;;15.20;99.90;;;;;;4968752;28;20197;-48
2022/06/10 00:23:59;;;;;;;12.87;10.67;;;15.30;99.90;;;;;;4966841;28;20252;-54
2022/06/10 00:26:25;;;;;;;11.53;10.33;;;15.30;99.90;;;;;;4970474;28;20188;-53
2022/06/10 00:28:50;;;;;;;9.90;8.90;;;15.40;99.90;;;;;;4968190;28;20685;-51
2022/06/10 00:31:17;;;;;;;10.40;9.37;;;15.50;99.90;;;;;;4972614;28;20181;-53
2022/06/10 00:33:42;;;;;;;10.67;9.67;;;15.50;99.90;;;;;;4959366;28;20274;-49
2022/06/10 00:36:09;;;;;;;9.57;8.77;;;15.50;99.90;;;;;;4968367;28;20449;-52
2022/06/10 00:38:35;;;;;;;9.50;8.50;;;15.60;99.90;;;;;;4969024;28;20203;-52
2022/06/10 00:41:01;;;;;;;9.77;8.83;;;15.70;99.90;;;;;;4962888;28;20445;-50
2022/06/10 00:43:31;;;;;;;9.80;8.80;;;15.70;99.90;;;;;;4968209;28;20655;-54
2022/06/10 00:46:00;;;;;;;9.30;8.40;;;15.80;99.90;;;;;;4968159;28;20433;-52
2022/06/10 00:48:36;;;;;;;10.73;8.43;;;15.90;99.90;;;;;;4969496;28;20485;-55
2022/06/10 00:51:19;;;;;;;8.83;8.03;;;15.90;99.90;;;;;;4969942;28;20437;-51
2022/06/10 00:53:51;;;;;;;9.03;8.33;;;16.00;99.90;;;;;;4969910;28;20841;-53
2022/06/10 00:56:21;;;;;;;7.83;7.13;;;16.10;99.90;;;;;;4968427;28;20506;-49
2022/06/10 00:59:04;;;;;;;7.83;7.17;;;16.10;99.90;;;;;;4968289;28;20449;-56
2022/06/10 01:01:32;;;;;;;8.67;7.77;;;16.20;99.90;;;;;;4963304;28;20457;-52
2022/06/10 01:03:59;;;;;;;7.53;6.80;;;16.30;99.90;;;;;;4969478;28;20576;-50
2022/06/10 01:06:24;;;;;;;7.90;7.20;;;16.40;99.90;;;;;;4969230;28;20446;-50
2022/06/10 01:08:51;;;;;;;8.07;7.37;;;16.40;99.90;;;;;;4968966;28;20458;-56
2022/06/10 01:11:43;;;;;;;7.20;6.60;;;16.40;99.90;;;;;;4963300;28;20185;-50
2022/06/10 01:14:11;;;;;;;7.90;7.20;;;16.50;99.90;;;;;;4966421;28;20582;-54
2022/06/10 01:17:08;;;;;;;7.80;7.10;;;16.50;99.90;;;;;;4968214;28;20441;-54
2022/06/10 01:19:49;;;;;;;8.00;7.30;;;16.50;99.90;;;;;;4973540;28;20835;-53
2022/06/10 01:22:17;;;;;;;8.20;7.40;;;16.50;99.90;;;;;;4970330;28;20418;-53
2022/06/10 01:25:02;;;;;;;7.17;6.57;;;16.60;99.90;;;;;;4964272;28;20860;-54
2022/06/10 01:27:48;;;;;;;7.00;6.40;;;16.60;99.90;;;;;;4971558;28;20471;-51
2022/06/10 01:30:26;;;;;;;8.07;6.67;;;16.60;99.90;;;;;;4969060;28;20945;-54
2022/06/10 01:33:09;;;;;;;7.93;7.23;;;16.60;99.90;;;;;;4968316;28;20532;-50
2022/06/10 01:35:42;;;;;;;7.03;6.27;;;16.60;99.90;;;;;;4969312;28;20461;-54
2022/06/10 01:38:32;;;;;;;7.17;6.23;;;16.70;99.90;;;;;;4968785;28;20926;-51
2022/06/10 01:41:09;;;;;;;6.97;6.27;;;16.70;99.90;;;;;;4966751;28;20800;-58
2022/06/10 01:43:52;;;;;;;6.50;6.00;;;16.70;99.90;;;;;;4982030;28;20470;-53
2022/06/10 01:46:30;;;;;;;7.10;6.43;;;16.70;99.90;;;;;;4981392;28;20462;-53
2022/06/10 01:49:17;;;;;;;7.83;7.13;;;16.70;99.90;;;;;;4965196;28;20508;-53
2022/06/10 01:51:55;;;;;;;7.60;6.90;;;16.70;99.90;;;;;;4970091;28;20457;-55
2022/06/10 01:54:44;;;;;;;8.30;7.30;;;16.60;99.90;;;;;;4971566;28;20437;-55
2022/06/10 01:57:16;;;;;;;7.43;6.83;;;16.60;99.90;;;;;;4969278;28;20539;-56
2022/06/10 01:59:56;;;;;;;7.00;6.30;;;16.60;99.90;;;;;;4973108;28;20431;-53
2022/06/10 02:02:30;;;;;;;7.37;6.67;;;16.50;99.90;;;;;;4970640;28;20433;-52
2022/06/10 02:05:01;;;;;;;8.27;7.20;;;16.40;99.90;;;;;;4972589;28;20433;-52
2022/06/10 02:07:33;;;;;;;9.07;6.27;;;16.30;99.90;;;;;;4971031;28;20440;-56
2022/06/10 02:10:10;;;;;;;8.30;7.50;;;16.30;99.90;;;;;;4961245;28;20523;-53
2022/06/10 02:12:40;;;;;;;9.73;7.20;;;16.20;99.90;;;;;;4981171;28;20431;-54
2022/06/10 02:15:25;;;;;;;8.57;7.77;;;16.10;99.90;;;;;;4970575;28;20432;-52
2022/06/10 02:18:05;;;;;;;8.00;7.20;;;16.00;99.90;;;;;;4972356;28;20439;-55
2022/06/10 02:20:32;;;;;;;8.30;7.50;;;15.90;99.90;;;;;;4970647;28;20455;-55
2022/06/10 02:23:01;;;;;;;7.40;6.77;;;15.80;99.90;;;;;;4969206;28;20478;-53
2022/06/10 02:25:40;;;;;;;9.33;7.30;;;15.70;99.90;;;;;;4967846;28;20440;-52
2022/06/10 02:28:12;;;;;;;8.43;7.73;;;15.70;99.90;;;;;;4971655;28;20547;-51
2022/06/10 02:30:49;;;;;;;8.00;7.13;;;15.60;99.90;;;;;;4970519;28;20438;-56
2022/06/10 02:33:15;;;;;;;8.43;7.57;;;15.50;99.90;;;;;;4970199;28;20507;-51
2022/06/10 02:35:56;;;;;;;7.67;6.97;;;15.50;99.90;;;;;;4971751;28;20443;-56
2022/06/10 02:38:35;;;;;;;8.83;8.03;;;15.40;99.90;;;;;;4969316;28;20454;-55
2022/06/10 02:41:24;;;;;;;8.37;7.53;;;15.40;99.90;;;;;;4974064;28;20459;-50
2022/06/10 02:44:00;;;;;;;7.70;7.00;;;15.40;99.90;;;;;;4972089;28;20460;-55
2022/06/10 02:47:03;;;;;;;8.33;7.50;;;15.30;99.90;;;;;;4973268;28;20431;-54
2022/06/10 02:49:29;;;;;;;7.50;6.90;;;15.20;99.90;;;;;;4971266;28;20473;-56
2022/06/10 02:51:55;;;;;;;8.73;7.57;;;15.10;99.90;;;;;;4967746;28;20444;-56
2022/06/10 02:54:33;;;;;;;8.53;7.50;;;15.00;99.90;;;;;;4966096;28;21059;-55
2022/06/10 02:57:16;;;;;;;8.30;7.60;;;15.00;99.90;;;;;;4970245;28;20871;-55
2022/06/10 03:02:30;;;;;;;9.13;8.10;;;14.80;99.90;;;;;;4969091;28;20539;-54
2022/06/10 03:05:13;;;;;;;9.47;8.57;;;14.80;99.90;;;;;;4968871;28;20535;-52
2022/06/10 03:08:03;;;;;;;8.70;8.00;;;14.70;99.90;;;;;;4962214;28;20193;-49
2022/06/10 03:10:50;;;;;;;8.50;7.67;;;14.70;99.90;;;;;;4971242;28;20486;-54
2022/06/10 03:13:37;;;;;;;8.37;7.67;;;14.60;99.90;;;;;;4977419;28;20464;-53
2022/06/10 03:16:37;;;;;;;9.30;8.50;;;14.50;99.90;;;;;;4969872;28;20449;-53
2022/06/10 03:19:30;;;;;;;9.00;8.20;;;14.50;99.90;;;;;;4970568;28;20444;-54
2022/06/10 03:22:11;;;;;;;9.87;8.87;;;14.40;99.90;;;;;;4970209;28;20499;-53
2022/06/10 03:24:59;;;;;;;8.73;8.03;;;14.40;99.90;;;;;;4963750;28;20493;-51
2022/06/10 03:27:54;;;;;;;8.70;7.90;;;14.40;99.90;;;;;;4970061;28;20566;-54
2022/06/10 03:30:25;;;;;;;8.80;8.10;;;14.30;99.90;;;;;;4970180;28;20451;-58
2022/06/10 03:33:01;;;;;;;8.97;8.13;;;14.30;99.90;;;;;;4959376;28;20420;-52
2022/06/10 03:35:40;;;;;;;8.50;7.80;;;14.30;99.90;;;;;;4968412;28;20446;-53
2022/06/10 03:38:07;;;;;;;9.03;8.13;;;14.30;99.90;;;;;;4965615;28;20448;-53
2022/06/10 03:40:34;;;;;;;10.50;8.17;;;14.30;99.90;;;;;;4974075;28;20439;-52
2022/06/10 03:43:03;;;;;;;8.67;7.90;;;14.30;99.90;;;;;;4972710;28;20555;-52
2022/06/10 03:45:37;;;;;;;9.33;8.43;;;14.30;99.90;;;;;;4970504;28;21269;-53
2022/06/10 03:48:02;;;;;;;10.07;9.23;;;14.30;99.90;;;;;;4968965;28;20983;-49
2022/06/10 03:50:37;;;;;;;9.77;8.87;;;14.40;99.90;;;;;;4965274;28;20535;-53
2022/06/10 03:53:04;;;;;;;10.40;8.70;;;14.40;99.90;;;;;;4969954;28;20180;-51
2022/06/10 03:55:29;;;;;;;9.30;8.40;;;14.50;99.90;;;;;;4970454;28;20454;-56
2022/06/10 03:57:55;;;;;;;9.27;8.47;;;14.60;99.90;;;;;;4971712;28;20476;-52
2022/06/10 04:00:24;;;;;;;10.30;9.27;;;14.70;99.90;;;;;;4969695;28;20193;-51
2022/06/10 04:02:50;;;;;;;9.93;8.90;;;14.80;99.90;;;;;;4967530;28;20213;-53
2022/06/10 04:05:16;;;;;;;9.90;8.53;;;14.90;99.90;;;;;;4965448;28;20437;-55
2022/06/10 04:07:42;;;;;;;9.93;8.10;;;15.00;99.90;;;;;;4969518;28;20458;-52
2022/06/10 04:10:12;;;;;;;10.47;8.50;;;15.10;99.90;;;;;;4949811;28;20588;-54
2022/06/10 04:12:37;;;;;;;9.40;8.50;;;15.20;99.90;;;;;;4949619;28;20437;-56
2022/06/10 04:15:07;;;;;;;8.47;7.77;;;15.20;99.90;;;;;;4944296;28;20449;-57
2022/06/10 04:17:33;;;;;;;9.40;8.00;;;15.30;99.90;;;;;;4945380;28;20543;-52
2022/06/10 04:19:59;;;;;;;10.00;8.07;;;15.40;99.90;;;;;;4944272;28;20435;-55
2022/06/10 04:22:25;;;;;;;8.50;7.70;;;15.50;99.90;;;;;;4949759;28;20186;-57
2022/06/10 04:24:51;;;;;;;9.30;8.47;;;15.60;99.90;;;;;;4945084;28;20438;-56
2022/06/10 04:27:17;;;;;;;11.60;8.30;;;15.70;99.90;;;;;;4947689;28;20508;-55
2022/06/10 04:29:43;;;;;;;8.40;7.70;;;15.80;99.90;;;;;;4943822;28;21386;-53
2022/06/10 04:32:09;;;;;;;8.30;7.53;;;15.90;99.90;;;;;;4943441;28;21042;-54
2022/06/10 04:34:36;;;;;;;8.63;7.80;;;15.90;99.90;;;;;;4944010;28;20190;-55
2022/06/10 04:37:03;;;;;;;8.53;7.73;;;15.90;99.90;;;;;;4944392;28;20190;-58
2022/06/10 04:39:28;;;;;;;8.30;7.50;;;15.90;99.90;;;;;;4943229;28;20462;-51
2022/06/10 04:41:54;;;;;;;9.53;8.73;;;16.00;99.90;;;;;;4945679;28;20450;-51
2022/06/10 04:44:20;;;;;;;14.57;10.37;;;16.00;99.90;;;;;;4950052;28;20332;-57
2022/06/10 04:46:46;;;;;;;10.80;9.83;;;16.00;99.90;;;;;;4957094;28;20195;-57
2022/06/10 04:49:11;;;;;;;18.40;10.20;;;16.10;99.90;;;;;;4969072;28;20198;-55
2022/06/10 04:51:37;;;;;;;9.23;8.43;;;16.10;99.90;;;;;;4970779;28;20434;-51
2022/06/10 04:54:05;;;;;;;10.13;8.20;;;16.10;99.90;;;;;;4966833;28;20694;-55
2022/06/10 04:56:31;;;;;;;12.50;9.30;;;16.20;99.90;;;;;;4966649;28;20483;-56
2022/06/10 04:58:57;;;;;;;8.33;7.53;;;16.30;99.90;;;;;;4964480;28;20445;-55
2022/06/10 05:01:23;;;;;;;8.33;7.10;;;16.30;99.90;;;;;;4969687;28;20455;-57
2022/06/10 05:03:48;;;;;;;8.43;7.40;;;16.30;99.90;;;;;;4969842;28;20206;-55
2022/06/10 05:06:15;;;;;;;8.07;7.27;;;16.30;99.90;;;;;;4974380;28;20434;-57
2022/06/10 05:08:40;;;;;;;8.30;7.50;;;16.30;99.90;;;;;;4969926;28;20282;-56
2022/06/10 05:11:07;;;;;;;8.03;7.13;;;16.40;99.90;;;;;;4970384;28;20850;-56
2022/06/10 05:13:33;;;;;;;8.23;7.53;;;16.30;99.90;;;;;;4970249;28;20188;-55
2022/06/10 05:15:58;;;;;;;7.63;7.03;;;16.40;99.90;;;;;;4960272;28;20439;-56
2022/06/10 05:18:26;;;;;;;7.27;6.63;;;16.40;99.90;;;;;;4970248;28;20430;-54
2022/06/10 05:20:53;;;;;;;7.67;6.90;;;16.40;99.90;;;;;;4968729;28;20193;-54
2022/06/10 05:23:21;;;;;;;7.63;6.73;;;16.50;99.90;;;;;;4965113;28;20898;-55
2022/06/10 05:25:47;;;;;;;7.43;6.70;;;16.50;99.90;;;;;;4957241;28;20425;-58
2022/06/10 05:28:13;;;;;;;8.70;7.00;;;16.50;99.90;;;;;;4971502;28;20932;-56
2022/06/10 05:30:40;;;;;;;8.00;6.87;;;16.50;99.90;;;;;;4974120;28;20433;-58
2022/06/10 05:33:07;;;;;;;7.17;6.47;;;16.50;99.90;;;;;;4972313;28;20430;-56
2022/06/10 05:35:34;;;;;;;6.63;6.03;;;16.50;99.90;;;;;;4979002;28;20449;-51
2022/06/10 05:38:00;;;;;;;7.27;6.60;;;16.50;99.90;;;;;;4973838;28;20437;-56
2022/06/10 05:40:28;;;;;;;7.53;6.33;;;16.60;99.90;;;;;;4972680;28;20434;-56
2022/06/10 05:42:54;;;;;;;5.90;5.40;;;16.60;99.90;;;;;;4973708;28;20486;-58
2022/06/10 05:45:21;;;;;;;6.20;5.70;;;16.70;99.90;;;;;;4974067;28;20806;-54
2022/06/10 05:47:50;;;;;;;6.37;5.77;;;16.80;99.90;;;;;;4966333;28;20775;-54
2022/06/10 05:50:17;;;;;;;6.63;6.03;;;16.80;99.90;;;;;;4970034;28;20798;-55
2022/06/10 05:52:43;;;;;;;6.63;6.13;;;16.90;99.90;;;;;;4968972;28;20427;-55
2022/06/10 05:55:11;;;;;;;6.20;5.60;;;16.90;99.90;;;;;;4970066;28;21040;-50
2022/06/10 05:57:38;;;;;;;5.80;5.30;;;16.90;99.90;;;;;;4973037;28;20226;-52
2022/06/10 06:00:13;;;;;;;5.53;5.10;;;16.90;99.90;;;;;;4967412;28;20436;-51
2022/06/10 06:02:39;;;;;;;5.50;5.07;;;16.90;99.90;;;;;;4972653;28;20430;-54
2022/06/10 06:05:07;;;;;;;6.07;5.57;;;17.00;99.90;;;;;;4973510;28;20546;-52
2022/06/10 06:07:33;;;;;;;7.00;5.27;;;17.10;99.90;;;;;;4969580;28;20504;-53
2022/06/10 06:09:59;;;;;;;5.30;4.80;;;17.20;99.90;;;;;;4973791;28;20424;-56
2022/06/10 06:12:24;;;;;;;5.53;5.13;;;17.20;99.90;;;;;;4972789;28;20180;-55
2022/06/10 06:14:50;;;;;;;6.00;5.03;;;17.30;99.90;;;;;;4972551;28;20996;-57
2022/06/10 06:17:19;;;;;;;5.93;5.43;;;17.30;99.90;;;;;;4973549;28;20243;-57
2022/06/10 06:19:45;;;;;;;6.93;6.33;;;17.40;99.90;;;;;;4969620;28;20220;-50
2022/06/10 06:22:11;;;;;;;5.17;4.70;;;17.50;99.90;;;;;;4954178;28;20951;-55
2022/06/10 06:24:38;;;;;;;5.90;5.50;;;17.80;99.90;;;;;;4953475;28;20512;-56
2022/06/10 06:27:05;;;;;;;6.80;6.30;;;18.00;99.90;;;;;;4960241;28;20200;-52
2022/06/10 06:29:31;;;;;;;8.60;7.77;;;18.20;99.90;;;;;;4972975;28;20437;-55
2022/06/10 06:31:57;;;;;;;6.17;5.30;;;18.40;99.90;;;;;;4973634;28;20567;-54
2022/06/10 06:34:24;;;;;;;5.43;5.03;;;18.70;99.90;;;;;;4978918;28;20554;-54
2022/06/10 06:36:52;;;;;;;5.20;4.80;;;18.90;99.90;;;;;;4990188;28;20189;-56
2022/06/10 06:39:20;;;;;;;7.33;4.40;;;19.10;99.90;;;;;;4971985;28;20428;-54
2022/06/10 06:41:46;;;;;;;5.80;5.20;;;19.20;99.90;;;;;;4972338;28;20421;-56
2022/06/10 06:44:13;;;;;;;5.67;5.13;;;19.50;99.90;;;;;;4971973;28;20475;-56
2022/06/10 06:46:41;;;;;;;4.80;4.40;;;19.50;99.90;;;;;;4973070;28;20428;-57
2022/06/10 06:49:11;;;;;;;5.27;4.73;;;19.50;99.90;;;;;;4972948;28;20491;-54
2022/06/10 06:51:39;;;;;;;4.73;4.33;;;19.60;99.90;;;;;;4971948;28;20583;-57
2022/06/10 06:54:06;;;;;;;4.77;4.37;;;19.60;98.60;;;;;;4973030;28;20519;-53
2022/06/10 06:56:31;;;;;;;7.60;4.17;;;19.60;99.50;;;;;;4972055;28;20472;-53
2022/06/10 06:58:57;;;;;;;4.73;4.33;;;19.70;99.20;;;;;;4967508;28;20444;-53
2022/06/10 07:01:22;;;;;;;4.97;4.50;;;19.90;98.60;;;;;;4985351;28;20199;-56
2022/06/10 07:03:48;;;;;;;4.67;4.27;;;20.00;98.10;;;;;;4979570;28;20200;-57
2022/06/10 07:06:14;;;;;;;5.00;4.50;;;20.30;98.10;;;;;;4971609;28;20255;-52
2022/06/10 07:08:40;;;;;;;4.30;3.80;;;20.50;95.90;;;;;;4972686;28;20534;-50
2022/06/10 07:11:08;;;;;;;4.60;4.20;;;20.40;95.80;;;;;;4977243;28;20439;-51
2022/06/10 07:13:36;;;;;;;4.40;4.10;;;20.40;95.70;;;;;;4955828;28;20256;-57
2022/06/10 07:16:02;;;;;;;4.83;4.43;;;20.50;95.90;;;;;;4953154;28;20410;-57
2022/06/10 07:18:29;;;;;;;4.37;3.97;;;20.60;96.30;;;;;;4952564;28;20416;-57
2022/06/10 07:20:55;;;;;;;5.10;4.70;;;20.70;96.30;;;;;;4968303;28;20452;-55
2022/06/10 07:23:20;;;;;;;4.90;4.60;;;20.70;95.80;;;;;;4972281;28;20445;-53
2022/06/10 07:25:47;;;;;;;4.50;4.20;;;20.90;95.00;;;;;;4968387;28;20180;-56
2022/06/10 07:28:13;;;;;;;5.77;4.27;;;21.20;94.00;;;;;;4952907;28;20246;-53
2022/06/10 07:30:39;;;;;;;4.87;4.47;;;21.40;93.70;;;;;;4957631;28;20410;-55
2022/06/10 07:33:05;;;;;;;4.70;4.30;;;21.40;93.60;;;;;;4971081;28;20565;-55
2022/06/10 07:35:31;;;;;;;5.53;5.13;;;21.50;93.40;;;;;;4971853;28;21004;-57
2022/06/10 07:38:00;;;;;;;4.73;4.37;;;21.70;92.10;;;;;;4970767;28;20514;-54
2022/06/10 07:43:19;;;;;;;5.27;4.90;;;21.80;92.60;;;;;;4971479;28;20455;-56
2022/06/10 07:45:45;;;;;;;4.80;4.50;;;22.00;91.50;;;;;;4965402;28;20796;-56
2022/06/10 07:48:11;;;;;;;5.50;5.00;;;22.10;90.90;;;;;;4967535;28;20435;-56
2022/06/10 07:50:39;;;;;;;5.57;5.07;;;22.10;90.70;;;;;;4969847;28;20528;-57
2022/06/10 07:53:05;;;;;;;4.83;4.50;;;22.20;90.40;;;;;;4971229;28;20470;-56
2022/06/10 07:55:30;;;;;;;5.33;4.93;;;22.20;90.80;;;;;;4968840;28;20914;-56
2022/06/10 07:57:56;;;;;;;4.93;4.47;;;22.40;90.00;;;;;;4966075;28;20445;-55
2022/06/10 08:00:25;;;;;;;5.43;4.50;;;22.50;87.90;;;;;;4970522;28;20322;-54
2022/06/10 08:02:50;;;;;;;5.00;4.60;;;22.60;87.40;;;;;;4983612;28;20214;-54
2022/06/10 08:05:17;;;;;;;5.00;4.60;;;22.60;86.20;;;;;;4970600;28;20478;-55
2022/06/10 08:07:43;;;;;;;4.80;4.40;;;22.50;86.80;;;;;;4965539;28;20181;-52
2022/06/10 08:10:21;;;;;;;5.70;4.90;;;22.50;84.70;;;;;;4970469;28;20424;-55
2022/06/10 08:12:46;;;;;;;4.60;4.30;;;22.60;85.70;;;;;;4970390;28;20431;-55
2022/06/10 08:15:14;;;;;;;5.07;4.50;;;22.70;83.80;;;;;;4971007;28;20427;-56
2022/06/10 08:17:39;;;;;;;4.23;3.93;;;22.50;83.60;;;;;;4970941;28;20215;-57
2022/06/10 08:20:06;;;;;;;5.30;4.90;;;22.70;86.00;;;;;;4967282;28;20471;-57
2022/06/10 08:22:32;;;;;;;4.93;4.50;;;22.60;82.70;;;;;;4970972;28;20522;-54
2022/06/10 08:24:58;;;;;;;6.03;5.20;;;22.60;82.60;;;;;;4970211;28;20603;-57
2022/06/10 08:27:23;;;;;;;5.60;4.50;;;22.70;82.20;;;;;;4970984;28;20187;-55
2022/06/10 08:29:49;;;;;;;4.90;4.60;;;22.70;81.20;;;;;;4969711;28;20594;-55
2022/06/10 08:32:14;;;;;;;5.87;5.07;;;22.80;79.60;;;;;;4970818;28;20227;-55
2022/06/10 08:34:41;;;;;;;6.43;5.80;;;22.80;80.70;;;;;;4967956;28;20274;-53
2022/06/10 08:37:10;;;;;;;5.70;5.30;;;22.60;80.80;;;;;;4966722;28;20524;-57
2022/06/10 08:39:36;;;;;;;5.33;4.93;;;22.50;82.90;;;;;;4969806;28;20864;-56
2022/06/10 08:42:15;;;;;;;5.20;4.80;;;22.70;83.40;;;;;;4965744;28;20507;-51
2022/06/10 08:44:57;;;;;;;5.40;5.00;;;22.90;81.10;;;;;;4962129;28;20227;-57
2022/06/10 08:47:32;;;;;;;5.27;4.87;;;23.10;80.30;;;;;;4969795;28;20526;-57
2022/06/10 08:50:44;;;;;;;5.60;5.10;;;23.00;82.30;;;;;;4968720;28;20451;-58
2022/06/10 08:53:22;;;;;;;5.13;4.80;;;23.40;81.20;;;;;;4981981;28;20433;-53
2022/06/10 08:56:13;;;;;;;6.70;5.20;;;23.60;81.00;;;;;;4957668;28;20934;-54
2022/06/10 08:59:06;;;;;;;5.97;5.47;;;23.90;77.60;;;;;;4970640;28;20400;-56
2022/06/10 09:02:04;;;;;;;5.20;4.90;;;24.10;75.60;;;;;;4969173;28;21280;-56
2022/06/10 09:04:41;;;;;;;4.83;4.53;;;23.90;74.40;;;;;;4976967;28;20479;-54
2022/06/10 09:07:12;;;;;;;5.00;4.60;;;24.00;72.10;;;;;;4974842;28;20799;-54
2022/06/10 09:09:41;;;;;;;6.07;5.57;;;24.00;68.90;;;;;;4990150;28;20404;-54
2022/06/10 09:12:12;;;;;;;5.47;5.17;;;24.00;71.00;;;;;;4973754;28;20777;-57
2022/06/10 09:14:38;;;;;;;5.73;5.33;;;24.10;70.90;;;;;;4970550;28;20409;-54
2022/06/10 09:17:21;;;;;;;5.20;4.90;;;24.30;68.90;;;;;;4969378;28;20436;-58
2022/06/10 09:20:18;;;;;;;6.67;5.43;;;24.50;69.90;;;;;;5001513;28;20516;-55
2022/06/10 09:22:57;;;;;;;7.00;6.50;;;24.80;69.50;;;;;;4957232;28;20445;-56
2022/06/10 09:25:41;;;;;;;5.97;5.47;;;25.20;67.80;;;;;;4989541;28;20404;-57
2022/06/10 09:28:06;;;;;;;6.37;5.77;;;24.90;68.10;;;;;;4972447;28;20441;-57
2022/06/10 09:30:56;;;;;;;6.33;5.87;;;24.80;67.20;;;;;;4970772;28;20405;-52
2022/06/10 09:33:59;;;;;;;6.27;5.77;;;24.90;68.20;;;;;;4971503;28;20195;-58
2022/06/10 09:36:42;;;;;;;5.63;5.23;;;24.90;68.50;;;;;;4959756;28;21116;-57
2022/06/10 09:42:26;;;;;;;5.40;5.00;;;25.90;61.10;;;;;;4970176;28;20461;-56
2022/06/10 09:44:56;;;;;;;5.87;5.47;;;26.40;59.70;;;;;;4960542;28;20532;-56
2022/06/10 09:47:28;;;;;;;5.30;4.90;;;26.70;58.50;;;;;;4970071;28;20817;-57
2022/06/10 09:50:06;;;;;;;6.90;5.60;;;27.50;58.40;;;;;;4968098;28;20784;-56
2022/06/10 09:53:17;;;;;;;5.97;5.57;;;28.20;53.90;;;;;;4972154;28;20467;-56
2022/06/10 09:56:04;;;;;;;5.50;5.20;;;28.60;51.20;;;;;;4976459;28;20440;-58
2022/06/10 09:58:44;;;;;;;5.10;4.60;;;29.20;50.20;;;;;;4968918;28;20447;-57
2022/06/10 10:01:46;;;;;;;4.70;4.40;;;29.50;47.30;;;;;;4969996;28;20422;-56
2022/06/10 10:04:18;;;;;;;6.60;6.10;;;30.20;47.00;;;;;;4963504;28;20966;-59
2022/06/10 10:07:00;;;;;;;5.47;5.00;;;30.20;41.50;;;;;;4970189;28;20434;-56
2022/06/10 10:10:10;;;;;;;5.03;4.63;;;29.40;42.80;;;;;;4967795;28;20446;-57
2022/06/10 10:13:03;;;;;;;5.10;4.70;;;28.00;46.70;;;;;;5007439;28;20442;-58
2022/06/10 10:15:37;;;;;;;5.07;4.77;;;28.00;48.70;;;;;;5008105;28;20520;-58
2022/06/10 10:18:20;;;;;;;4.53;4.23;;;28.30;46.90;;;;;;4978095;28;20463;-57
2022/06/10 10:21:21;;;;;;;5.20;4.83;;;28.60;47.20;;;;;;4985915;28;20578;-57
2022/06/10 10:23:50;;;;;;;5.80;5.40;;;28.70;46.00;;;;;;4977648;28;20496;-56
2022/06/10 10:26:24;;;;;;;6.13;5.60;;;29.50;41.90;;;;;;4972500;28;20488;-57
2022/06/10 10:28:59;;;;;;;5.63;5.23;;;29.50;42.70;;;;;;4973067;28;20476;-57
2022/06/10 10:31:32;;;;;;;5.60;5.20;;;29.80;44.20;;;;;;4972714;28;20546;-58
2022/06/10 10:34:01;;;;;;;5.53;5.13;;;29.90;41.50;;;;;;4972881;28;20441;-58
2022/06/10 10:36:32;;;;;;;4.83;4.53;;;29.70;42.30;;;;;;4967962;28;20432;-56
2022/06/10 10:39:13;;;;;;;4.70;4.50;;;29.90;41.40;;;;;;4972258;28;20427;-58
2022/06/10 10:41:42;;;;;;;5.50;5.17;;;29.90;38.60;;;;;;4973054;28;20424;-57
2022/06/10 10:44:44;;;;;;;5.03;4.63;;;30.40;38.00;;;;;;4972597;28;20489;-56
2022/06/10 10:47:10;;;;;;;5.00;4.70;;;30.70;38.00;;;;;;4990840;28;20455;-55
2022/06/10 10:49:48;;;;;;;5.00;4.43;;;30.90;37.20;;;;;;4983301;28;20947;-58
2022/06/10 10:52:33;;;;;;;4.93;4.53;;;31.20;35.90;;;;;;4963110;28;20537;-58
2022/06/10 10:55:19;;;;;;;5.40;5.00;;;31.90;35.00;;;;;;4985319;28;20974;-58
2022/06/10 10:58:14;;;;;;;5.60;5.30;;;31.40;33.50;;;;;;4966411;28;20510;-59
2022/06/10 11:00:43;;;;;;;4.83;4.53;;;31.30;36.20;;;;;;4956701;28;20943;-58
2022/06/10 11:03:22;;;;;;;5.67;5.23;;;31.30;35.50;;;;;;4968427;28;20523;-58
2022/06/10 11:05:52;;;;;;;5.00;4.70;;;31.70;34.50;;;;;;4972343;28;20527;-58
2022/06/10 11:08:22;;;;;;;5.27;4.87;;;32.50;32.90;;;;;;4973767;28;20471;-56
2022/06/10 11:11:01;;;;;;;4.87;4.57;;;33.20;31.60;;;;;;4969416;28;20475;-55
2022/06/10 11:13:46;;;;;;;5.20;4.90;;;32.50;31.30;;;;;;4958735;28;20471;-58
2022/06/10 11:16:26;;;;;;;5.30;4.90;;;31.60;33.00;;;;;;4974651;28;20462;-57
2022/06/10 11:18:54;;;;;;;4.50;4.30;;;31.40;33.50;;;;;;4965065;28;20962;-58
2022/06/10 11:21:25;;;;;;;5.53;4.90;;;30.90;35.60;;;;;;4971985;28;20527;-57
2022/06/10 11:23:53;;;;;;;5.03;4.73;;;31.20;36.40;;;;;;4971103;28;20472;-57
2022/06/10 11:26:22;;;;;;;5.33;4.47;;;31.80;35.40;;;;;;4974869;28;20472;-58
2022/06/10 11:28:49;;;;;;;4.53;4.13;;;32.50;34.10;;;;;;4970628;28;20440;-57
2022/06/10 11:31:35;;;;;;;5.40;5.00;;;33.30;32.80;;;;;;4971786;28;20424;-57
2022/06/10 11:34:02;;;;;;;4.90;4.57;;;33.90;30.90;;;;;;4968523;28;20436;-56
2022/06/10 11:36:35;;;;;;;5.00;4.70;;;33.70;29.80;;;;;;4971868;28;20425;-57
2022/06/10 11:39:09;;;;;;;5.10;4.80;;;33.60;30.40;;;;;;4979683;28;20454;-57
2022/06/10 11:41:35;;;;;;;4.37;3.90;;;33.20;29.40;;;;;;4972000;28;21332;-57
2022/06/10 11:44:11;;;;;;;3.90;3.60;;;32.80;29.50;;;;;;4970920;28;20567;-58
2022/06/10 11:46:59;;;;;;;4.37;4.17;;;32.70;29.10;;;;;;4971930;28;20184;-56
2022/06/10 11:49:39;;;;;;;4.43;4.13;;;33.00;28.90;;;;;;4970545;28;20935;-58
2022/06/10 11:52:23;;;;;;;4.47;4.10;;;32.90;28.70;;;;;;4971273;28;20421;-58
2022/06/10 11:55:10;;;;;;;4.60;4.30;;;33.60;29.10;;;;;;4971045;28;20907;-58
2022/06/10 12:00:59;;;;;;;4.73;4.43;;;35.00;26.60;;;;;;4969536;28;20455;-58
2022/06/10 12:03:43;;;;;;;4.50;4.20;;;35.20;25.70;;;;;;4983340;28;20461;-57
2022/06/10 12:06:17;;;;;;;4.80;4.50;;;36.40;25.70;;;;;;4967167;28;20465;-58
2022/06/10 12:08:49;;;;;;;4.40;4.20;;;36.60;24.40;;;;;;4973066;28;20777;-57
2022/06/10 12:11:26;;;;;;;4.20;3.90;;;36.80;24.20;;;;;;4971269;28;20452;-59
2022/06/10 12:14:02;;;;;;;4.23;4.03;;;36.60;24.80;;;;;;4979107;28;20506;-59
2022/06/10 12:16:30;;;;;;;4.50;4.30;;;36.80;23.80;;;;;;4971457;28;20514;-59
2022/06/10 12:18:57;;;;;;;4.43;4.07;;;36.60;22.20;;;;;;4965073;28;20466;-58
2022/06/10 12:21:24;;;;;;;4.63;4.33;;;36.20;22.10;;;;;;4972661;28;20512;-58
2022/06/10 12:23:51;;;;;;;5.00;4.70;;;35.60;22.80;;;;;;4970303;28;20478;-57
2022/06/10 12:26:35;;;;;;;5.30;4.80;;;34.90;24.00;;;;;;4971160;28;20528;-57
2022/06/10 12:29:19;;;;;;;4.67;4.37;;;34.60;24.00;;;;;;4970029;28;20978;-59
2022/06/10 12:32:04;;;;;;;4.50;4.10;;;34.60;23.70;;;;;;4970968;28;20420;-59
2022/06/10 12:34:50;;;;;;;4.93;4.70;;;34.70;22.80;;;;;;4966996;28;20466;-58
2022/06/10 12:37:51;;;;;;;5.67;5.23;;;34.40;22.60;;;;;;4970303;28;20420;-58
2022/06/10 12:40:49;;;;;;;5.87;5.47;;;33.80;24.00;;;;;;4990167;28;20940;-58
2022/06/10 12:43:23;;;;;;;5.20;4.90;;;33.10;25.90;;;;;;4970740;28;20452;-58
2022/06/10 12:46:04;;;;;;;5.47;5.17;;;33.40;25.00;;;;;;4961675;28;20443;-57
2022/06/10 12:48:43;;;;;;;5.67;5.37;;;33.30;25.10;;;;;;4970964;28;20420;-58
2022/06/10 12:51:11;;;;;;;5.57;5.23;;;33.10;25.20;;;;;;4973328;28;20443;-57
2022/06/10 12:53:49;;;;;;;5.37;5.17;;;33.10;25.20;;;;;;4976827;28;20449;-58
2022/06/10 12:56:31;;;;;;;6.00;5.60;;;32.70;26.30;;;;;;4962700;28;20522;-57
2022/06/10 12:59:09;;;;;;;5.03;4.70;;;33.00;26.50;;;;;;4970654;28;20424;-57
2022/06/10 13:01:35;;;;;;;5.57;5.27;;;33.40;26.00;;;;;;4969254;28;20781;-58
2022/06/10 13:04:00;;;;;;;5.57;5.20;;;34.10;24.60;;;;;;4970700;28;20539;-57
2022/06/10 13:06:29;;;;;;;4.43;4.10;;;34.00;23.90;;;;;;4965506;28;20186;-58
2022/06/10 13:08:58;;;;;;;4.60;4.40;;;33.60;24.50;;;;;;4960146;28;20188;-57
2022/06/10 13:11:36;;;;;;;5.20;4.90;;;33.60;24.60;;;;;;4968298;28;20437;-56
2022/06/10 13:14:43;;;;;;;4.97;4.67;;;34.10;24.80;;;;;;4958610;28;20454;-58
2022/06/10 13:17:35;;;;;;;5.80;5.40;;;34.00;24.50;;;;;;4970532;28;20432;-56
2022/06/10 13:20:14;;;;;;;4.97;4.67;;;33.80;24.80;;;;;;4951527;28;20457;-57
2022/06/10 13:22:40;;;;;;;5.00;4.70;;;33.60;25.80;;;;;;4951326;28;20991;-57
2022/06/10 13:25:05;;;;;;;5.20;4.90;;;33.30;26.20;;;;;;4967991;28;20480;-57
2022/06/10 13:27:46;;;;;;;4.70;4.40;;;32.70;27.20;;;;;;4970891;28;20193;-54
2022/06/10 13:30:32;;;;;;;4.77;4.47;;;32.10;27.00;;;;;;4968788;28;20185;-58